Time;durP1;ratioP1;P1;durP2;ratioP2;P2;SDS_P1;SDS_P2;PMS_P1;PMS_P2;Temp;Humidity;BMP_temperature;BMP_pressure;BME280_temperature;BME280_humidity;BME280_pressure;Samples;Min_cycle;Max_cycle;Signal;HPM_P1;HPM_P2
2022/10/03 00:00:16;;;;;;;5.85;2.80;;;17.50;99.90;;;;;;4611543;19;20010;-35
2022/10/03 00:02:13;;;;;;;5.65;2.40;;;17.50;99.90;;;;;;4610891;19;20011;-34
2022/10/03 00:04:06;;;;;;;4.88;1.75;;;17.50;99.90;;;;;;4605818;19;20355;-37
2022/10/03 00:05:50;;;;;;;6.18;2.05;;;17.40;99.90;;;;;;4593425;19;20010;-34
2022/10/03 00:08:00;;;;;;;5.07;2.22;;;17.40;99.90;;;;;;4593310;19;20054;-31
2022/10/03 00:09:40;;;;;;;5.15;1.60;;;17.50;99.90;;;;;;4590923;19;20007;-34
2022/10/03 00:11:26;;;;;;;3.85;2.00;;;17.50;99.90;;;;;;4591385;19;20045;-34
2022/10/03 00:13:26;;;;;;;3.83;1.80;;;17.50;99.90;;;;;;4589073;19;20088;-33
2022/10/03 00:15:03;;;;;;;6.03;2.38;;;17.50;99.90;;;;;;4590117;19;20055;-35
2022/10/03 00:16:55;;;;;;;5.57;2.47;;;17.50;99.90;;;;;;4590114;19;20025;-32
2022/10/03 00:18:53;;;;;;;3.38;2.00;;;17.60;99.90;;;;;;4591324;19;20028;-35
2022/10/03 00:20:52;;;;;;;5.32;3.00;;;17.60;99.90;;;;;;4590687;19;20038;-36
2022/10/03 00:22:27;;;;;;;4.38;1.95;;;17.60;99.90;;;;;;4589236;19;20014;-33
2022/10/03 00:23:58;;;;;;;3.63;1.55;;;17.60;99.90;;;;;;4591222;19;20006;-32
2022/10/03 00:25:52;;;;;;;4.38;2.00;;;17.50;99.90;;;;;;4590638;19;20019;-38
2022/10/03 00:27:31;;;;;;;4.45;1.80;;;17.50;99.90;;;;;;4590576;19;20017;-32
2022/10/03 00:29:24;;;;;;;5.55;1.58;;;17.60;99.90;;;;;;4590299;19;20044;-34
2022/10/03 00:31:15;;;;;;;4.30;1.73;;;17.60;99.90;;;;;;4590387;19;20381;-33
2022/10/03 00:33:13;;;;;;;4.00;1.25;;;17.50;99.90;;;;;;4590076;19;20022;-36
2022/10/03 00:34:44;;;;;;;4.20;1.92;;;17.50;99.90;;;;;;4590243;19;20062;-36
2022/10/03 00:36:40;;;;;;;4.05;1.50;;;17.50;99.90;;;;;;4591129;19;20018;-34
2022/10/03 00:38:13;;;;;;;3.20;1.10;;;17.50;99.90;;;;;;4590354;19;20014;-34
2022/10/03 00:40:08;;;;;;;3.55;1.20;;;17.50;99.90;;;;;;4590075;19;20014;-32
2022/10/03 00:41:52;;;;;;;4.90;1.52;;;17.50;99.90;;;;;;4590188;19;20014;-32
2022/10/03 00:43:45;;;;;;;5.45;1.67;;;17.50;99.90;;;;;;4590047;19;20392;-34
2022/10/03 00:45:49;;;;;;;3.88;1.85;;;17.50;99.90;;;;;;4590268;19;20087;-36
2022/10/03 00:47:58;;;;;;;5.53;1.90;;;17.50;99.90;;;;;;4589869;19;20010;-33
2022/10/03 00:50:06;;;;;;;6.03;1.90;;;17.50;99.90;;;;;;4589928;19;20373;-33
2022/10/03 00:51:51;;;;;;;6.22;2.80;;;17.50;99.90;;;;;;4590359;19;20011;-33
2022/10/03 00:53:50;;;;;;;5.93;2.30;;;17.50;99.90;;;;;;4588915;19;20022;-33
2022/10/03 00:55:31;;;;;;;5.55;1.75;;;17.50;99.90;;;;;;4590076;19;20435;-37
2022/10/03 00:57:20;;;;;;;3.35;1.45;;;17.50;99.90;;;;;;4590063;19;20084;-33
2022/10/03 00:58:59;;;;;;;3.15;1.52;;;17.50;99.90;;;;;;4589967;19;20048;-35
2022/10/03 01:00:31;;;;;;;6.53;1.85;;;17.50;99.90;;;;;;4589905;19;20377;-34
2022/10/03 01:02:32;;;;;;;4.15;1.83;;;17.50;99.90;;;;;;4590532;19;20129;-32
2022/10/03 01:04:29;;;;;;;3.92;1.83;;;17.50;99.90;;;;;;4589908;19;20027;-35
2022/10/03 01:06:28;;;;;;;6.30;2.47;;;17.60;99.90;;;;;;4589115;19;20031;-32
2022/10/03 01:08:20;;;;;;;5.43;2.20;;;17.60;99.90;;;;;;4589579;19;20112;-36
2022/10/03 01:10:01;;;;;;;7.45;3.05;;;17.60;99.90;;;;;;4590288;19;20014;-35
2022/10/03 01:11:53;;;;;;;3.35;1.55;;;17.60;99.90;;;;;;4590218;19;20093;-34
2022/10/03 01:13:37;;;;;;;4.63;1.75;;;17.70;99.90;;;;;;4588116;19;20401;-35
2022/10/03 01:15:20;;;;;;;3.45;1.40;;;17.70;99.90;;;;;;4589450;19;20031;-32
2022/10/03 01:17:09;;;;;;;4.00;1.58;;;17.70;99.90;;;;;;4588428;19;20044;-33
2022/10/03 01:19:04;;;;;;;4.70;2.00;;;17.70;99.90;;;;;;4589612;19;20018;-38
2022/10/03 01:20:53;;;;;;;3.95;1.80;;;17.70;99.90;;;;;;4589384;19;20022;-32
2022/10/03 01:22:36;;;;;;;4.13;1.83;;;17.70;99.90;;;;;;4588890;19;20495;-32
2022/10/03 01:24:30;;;;;;;3.63;1.55;;;17.70;99.90;;;;;;4589262;19;20003;-32
2022/10/03 01:26:52;;;;;;;3.88;1.63;;;17.70;99.90;;;;;;4589291;19;20044;-32
2022/10/03 01:30:56;;;;;;;4.05;1.85;;;17.70;99.90;;;;;;4589525;19;20040;-37
2022/10/03 01:32:42;;;;;;;4.72;2.00;;;17.70;99.90;;;;;;4588676;19;20031;-32
2022/10/03 01:34:16;;;;;;;7.72;3.05;;;17.70;99.90;;;;;;4589188;19;20521;-38
2022/10/03 01:35:52;;;;;;;3.95;2.10;;;17.70;99.90;;;;;;4589038;19;20346;-33
2022/10/03 01:38:08;;;;;;;6.57;2.10;;;17.60;99.90;;;;;;4589042;19;20078;-33
2022/10/03 01:40:02;;;;;;;3.30;1.63;;;17.70;99.90;;;;;;4588884;19;20394;-35
2022/10/03 01:41:57;;;;;;;5.13;1.70;;;17.70;99.90;;;;;;4589389;19;20007;-35
2022/10/03 01:43:41;;;;;;;6.95;2.47;;;17.70;99.90;;;;;;4589128;19;20018;-36
2022/10/03 01:45:25;;;;;;;4.15;2.00;;;17.70;99.90;;;;;;4589038;19;20112;-35
2022/10/03 01:47:14;;;;;;;3.25;1.55;;;17.70;99.90;;;;;;4588841;19;20011;-35
2022/10/03 01:48:54;;;;;;;3.05;1.73;;;17.60;99.90;;;;;;4589232;19;20021;-38
2022/10/03 01:50:45;;;;;;;3.35;1.38;;;17.60;99.90;;;;;;4588688;19;20022;-34
2022/10/03 01:52:30;;;;;;;3.63;1.45;;;17.70;99.90;;;;;;4588430;19;20027;-36
2022/10/03 01:54:06;;;;;;;4.05;1.58;;;17.70;99.90;;;;;;4589486;19;19994;-36
2022/10/03 01:55:52;;;;;;;4.80;1.70;;;17.80;99.90;;;;;;4589863;19;19994;-32
2022/10/03 01:57:31;;;;;;;3.90;1.52;;;17.80;99.90;;;;;;4588739;19;20082;-36
2022/10/03 01:59:18;;;;;;;5.30;1.85;;;17.70;99.90;;;;;;4588358;19;20347;-38
2022/10/03 02:01:19;;;;;;;4.03;1.90;;;17.70;99.90;;;;;;4588953;19;20018;-34
2022/10/03 02:03:08;;;;;;;3.47;1.50;;;17.70;99.90;;;;;;4588383;19;20014;-38
2022/10/03 02:04:47;;;;;;;3.60;1.90;;;17.70;99.90;;;;;;4588635;19;20006;-31
2022/10/03 02:06:49;;;;;;;5.13;1.63;;;17.70;99.90;;;;;;4588932;19;20475;-39
2022/10/03 02:08:32;;;;;;;5.35;1.92;;;17.70;99.90;;;;;;4588756;19;20014;-33
2022/10/03 02:10:18;;;;;;;4.95;1.55;;;17.70;99.90;;;;;;4588867;19;20006;-31
2022/10/03 02:11:49;;;;;;;3.65;1.67;;;17.70;99.90;;;;;;4588314;19;20103;-32
2022/10/03 02:13:45;;;;;;;4.95;1.38;;;17.80;99.90;;;;;;4587737;19;20475;-32
2022/10/03 02:15:23;;;;;;;2.40;1.20;;;17.80;99.90;;;;;;4587825;19;20010;-32
2022/10/03 02:16:57;;;;;;;3.60;1.50;;;17.80;99.90;;;;;;4588431;19;20019;-36
2022/10/03 02:18:47;;;;;;;4.10;1.45;;;17.80;99.90;;;;;;4588663;19;20023;-37
2022/10/03 02:20:24;;;;;;;3.72;1.60;;;17.80;99.90;;;;;;4588488;19;20021;-36
2022/10/03 02:21:57;;;;;;;4.82;2.20;;;17.70;99.90;;;;;;4587696;19;20019;-34
2022/10/03 02:23:30;;;;;;;4.05;1.80;;;17.70;99.90;;;;;;4588329;19;20011;-35
2022/10/03 02:25:18;;;;;;;4.63;1.73;;;17.70;99.90;;;;;;4589135;19;20620;-37
2022/10/03 02:27:16;;;;;;;5.32;2.13;;;17.70;99.90;;;;;;4588074;19;20044;-35
2022/10/03 02:28:56;;;;;;;3.00;1.52;;;17.70;99.90;;;;;;4588330;19;20354;-36
2022/10/03 02:30:36;;;;;;;4.82;1.73;;;17.70;99.90;;;;;;4588190;19;20013;-32
2022/10/03 02:32:28;;;;;;;3.55;2.30;;;17.70;99.90;;;;;;4588135;19;20010;-36
2022/10/03 02:34:14;;;;;;;3.63;1.92;;;17.70;99.90;;;;;;4589678;19;20119;-32
2022/10/03 02:36:24;;;;;;;5.68;2.00;;;17.70;99.90;;;;;;4588623;19;20380;-34
2022/10/03 02:38:13;;;;;;;5.78;1.83;;;17.70;99.90;;;;;;4588265;19;20035;-38
2022/10/03 02:39:49;;;;;;;3.42;1.60;;;17.70;99.90;;;;;;4588630;19;20010;-33
2022/10/03 02:41:41;;;;;;;4.65;2.00;;;17.70;99.90;;;;;;4590349;19;20002;-33
2022/10/03 02:43:42;;;;;;;3.47;1.95;;;17.70;99.90;;;;;;4590103;19;20014;-35
2022/10/03 02:45:24;;;;;;;3.78;1.92;;;17.70;99.90;;;;;;4587480;19;20006;-33
2022/10/03 02:47:26;;;;;;;5.35;1.80;;;17.60;99.90;;;;;;4587840;19;20014;-32
2022/10/03 02:49:29;;;;;;;4.68;2.08;;;17.50;99.90;;;;;;4587844;19;20006;-32
2022/10/03 02:51:32;;;;;;;3.90;1.92;;;17.50;99.90;;;;;;4587222;19;20035;-36
2022/10/03 02:53:37;;;;;;;3.95;1.98;;;17.60;99.90;;;;;;4586374;19;20037;-35
2022/10/03 02:55:38;;;;;;;5.43;1.88;;;17.70;99.90;;;;;;4587496;19;20015;-35
2022/10/03 02:57:47;;;;;;;5.28;1.77;;;17.70;99.90;;;;;;4587163;19;20114;-34
2022/10/03 02:59:29;;;;;;;5.65;2.15;;;17.70;99.90;;;;;;4587274;19;20042;-33
2022/10/03 03:01:44;;;;;;;3.55;2.03;;;17.70;99.90;;;;;;4587810;19;20015;-35
2022/10/03 03:03:53;;;;;;;4.30;1.60;;;17.70;99.90;;;;;;4587044;19;20018;-32
2022/10/03 03:05:31;;;;;;;7.38;2.35;;;17.70;99.90;;;;;;4587109;19;20096;-35
2022/10/03 03:07:14;;;;;;;4.22;2.00;;;17.60;99.90;;;;;;4587476;19;20469;-33
2022/10/03 03:09:12;;;;;;;4.22;1.98;;;17.60;99.90;;;;;;4587381;19;20022;-36
2022/10/03 03:10:58;;;;;;;4.70;1.60;;;17.50;99.90;;;;;;4587877;19;20007;-41
2022/10/03 03:12:50;;;;;;;3.75;1.40;;;17.60;99.90;;;;;;4587784;19;20353;-32
2022/10/03 03:14:51;;;;;;;3.55;1.70;;;17.70;99.90;;;;;;4587057;19;20035;-39
2022/10/03 03:16:44;;;;;;;4.35;1.60;;;17.60;99.90;;;;;;4612004;19;21070;-38
2022/10/03 03:18:30;;;;;;;6.43;1.88;;;17.60;99.90;;;;;;4612255;19;20017;-34
2022/10/03 03:20:52;;;;;;;4.30;1.48;;;17.60;99.90;;;;;;4612620;19;20021;-34
2022/10/03 03:22:50;;;;;;;3.55;1.70;;;17.60;99.90;;;;;;4608624;19;20014;-38
2022/10/03 03:24:28;;;;;;;3.38;1.48;;;17.70;99.90;;;;;;4609849;19;20514;-34
2022/10/03 03:25:59;;;;;;;2.72;1.10;;;17.70;99.90;;;;;;4610256;19;20040;-38
2022/10/03 03:27:59;;;;;;;3.63;1.58;;;17.70;99.90;;;;;;4610313;19;20015;-36
2022/10/03 03:29:40;;;;;;;4.97;1.85;;;17.70;99.90;;;;;;4610892;19;20019;-36
2022/10/03 03:31:13;;;;;;;3.15;1.30;;;17.70;99.90;;;;;;4610741;19;20476;-34
2022/10/03 03:32:48;;;;;;;4.78;1.40;;;17.70;99.90;;;;;;4611259;19;20041;-33
2022/10/03 03:34:43;;;;;;;3.35;1.30;;;17.60;99.90;;;;;;4611087;19;20027;-33
2022/10/03 03:36:16;;;;;;;4.32;1.45;;;17.50;99.90;;;;;;4610593;19;20484;-36
2022/10/03 03:38:10;;;;;;;2.25;1.20;;;17.50;99.90;;;;;;4612277;19;20078;-33
2022/10/03 03:40:11;;;;;;;2.55;1.20;;;17.60;99.90;;;;;;4612337;19;20464;-34
2022/10/03 03:41:51;;;;;;;3.63;2.03;;;17.60;99.90;;;;;;4612222;19;20101;-33
2022/10/03 03:43:49;;;;;;;3.63;1.48;;;17.60;99.90;;;;;;4611892;19;20028;-35
2022/10/03 03:45:37;;;;;;;2.80;1.80;;;17.60;99.90;;;;;;4611167;19;20014;-34
2022/10/03 03:47:23;;;;;;;5.20;1.90;;;17.50;99.90;;;;;;4611748;19;20003;-36
2022/10/03 03:49:21;;;;;;;3.25;1.30;;;17.50;99.90;;;;;;4612247;19;20014;-34
2022/10/03 03:51:13;;;;;;;4.20;1.75;;;17.40;99.90;;;;;;4611760;19;20011;-35
2022/10/03 03:53:14;;;;;;;4.97;1.48;;;17.40;99.90;;;;;;4611325;19;20037;-34
2022/10/03 03:54:52;;;;;;;3.95;1.50;;;17.30;99.90;;;;;;4611758;19;20013;-39
2022/10/03 03:56:45;;;;;;;4.65;1.50;;;17.30;99.90;;;;;;4610771;19;20062;-35
2022/10/03 03:58:25;;;;;;;3.28;1.38;;;17.40;99.90;;;;;;4612806;19;20011;-33
2022/10/03 04:00:05;;;;;;;3.63;1.30;;;17.40;99.90;;;;;;4611519;19;20010;-35
2022/10/03 04:01:59;;;;;;;5.80;1.70;;;17.40;99.90;;;;;;4611654;19;20014;-38
2022/10/03 04:03:50;;;;;;;4.20;1.73;;;17.40;99.90;;;;;;4611530;19;20006;-33
2022/10/03 04:05:27;;;;;;;3.92;1.67;;;17.40;99.90;;;;;;4610790;19;20014;-36
2022/10/03 04:07:33;;;;;;;2.58;1.30;;;17.50;99.90;;;;;;4610275;19;20015;-35
2022/10/03 04:09:24;;;;;;;4.13;1.50;;;17.50;99.90;;;;;;4609369;19;20464;-32
2022/10/03 04:11:11;;;;;;;4.38;1.27;;;17.50;99.90;;;;;;4609683;19;20017;-31
2022/10/03 04:13:08;;;;;;;5.10;1.95;;;17.50;99.90;;;;;;4609535;19;20017;-33
2022/10/03 04:14:46;;;;;;;3.42;1.40;;;17.50;99.90;;;;;;4609066;19;20129;-31
2022/10/03 04:18:59;;;;;;;4.28;1.40;;;17.50;99.90;;;;;;4609910;19;20096;-31
2022/10/03 04:20:57;;;;;;;5.10;1.70;;;17.50;99.90;;;;;;4609058;19;20016;-31
2022/10/03 04:22:49;;;;;;;4.70;1.40;;;17.50;99.90;;;;;;4606857;19;20030;-33
2022/10/03 04:24:39;;;;;;;;;;;17.50;99.90;;;;;;4610844;19;20021;-35
2022/10/03 04:26:36;;;;;;;2.60;1.10;;;17.50;99.90;;;;;;4607516;19;20334;-34
2022/10/03 04:28:10;;;;;;;4.72;1.10;;;17.50;99.90;;;;;;4590630;19;20010;-34
2022/10/03 04:29:55;;;;;;;5.38;2.67;;;17.50;99.90;;;;;;4591086;19;20022;-34
2022/10/03 04:31:32;;;;;;;4.20;0.98;;;17.50;99.90;;;;;;4590025;19;20021;-33
2022/10/03 04:33:06;;;;;;;3.22;1.17;;;17.40;99.90;;;;;;4590748;19;20071;-36
2022/10/03 04:34:37;;;;;;;3.38;1.05;;;17.40;99.90;;;;;;4591532;19;20031;-31
2022/10/03 04:36:26;;;;;;;2.65;1.08;;;17.50;99.90;;;;;;4590461;19;20481;-33
2022/10/03 04:38:21;;;;;;;3.38;1.10;;;17.50;99.90;;;;;;4592425;19;20093;-35
2022/10/03 04:40:37;;;;;;;3.00;1.40;;;17.50;99.90;;;;;;4590835;19;20039;-33
2022/10/03 04:42:33;;;;;;;2.58;1.20;;;17.40;99.90;;;;;;4590192;19;20086;-31
2022/10/03 04:44:11;;;;;;;4.45;1.60;;;17.50;99.90;;;;;;4589135;19;20032;-34
2022/10/03 04:45:44;;;;;;;5.55;1.35;;;17.50;99.90;;;;;;4590870;19;20078;-30
2022/10/03 04:47:25;;;;;;;3.22;1.40;;;17.50;99.90;;;;;;4590004;19;20520;-33
2022/10/03 04:49:30;;;;;;;2.65;1.25;;;17.40;99.90;;;;;;4591155;19;20022;-33
2022/10/03 04:52:03;;;;;;;3.25;1.30;;;17.40;99.90;;;;;;4591557;19;20011;-34
2022/10/03 04:53:53;;;;;;;4.20;1.70;;;17.40;99.90;;;;;;4591199;19;20078;-31
2022/10/03 04:55:39;;;;;;;3.55;1.20;;;17.40;99.90;;;;;;4590221;19;20093;-36
2022/10/03 04:57:37;;;;;;;5.07;1.45;;;17.40;99.90;;;;;;4591432;19;20394;-32
2022/10/03 04:59:35;;;;;;;3.10;1.02;;;17.40;99.90;;;;;;4590990;19;20354;-32
2022/10/03 05:01:23;;;;;;;5.28;2.03;;;17.40;99.90;;;;;;4589773;19;20011;-35
2022/10/03 05:03:04;;;;;;;4.38;1.52;;;17.40;99.90;;;;;;4589639;19;20018;-36
2022/10/03 05:04:43;;;;;;;3.03;1.40;;;17.50;99.90;;;;;;4591018;19;20006;-31
2022/10/03 05:06:48;;;;;;;4.22;1.70;;;17.50;99.90;;;;;;4590157;19;20105;-37
2022/10/03 05:08:33;;;;;;;4.22;1.15;;;17.50;99.90;;;;;;4590247;19;20477;-31
2022/10/03 05:10:31;;;;;;;2.38;1.20;;;17.50;99.90;;;;;;4590001;19;20019;-34
2022/10/03 05:12:19;;;;;;;3.53;1.30;;;17.40;99.90;;;;;;4590141;19;20504;-33
2022/10/03 05:13:58;;;;;;;3.65;1.63;;;17.40;99.90;;;;;;4590962;19;20022;-36
2022/10/03 05:15:53;;;;;;;5.03;1.27;;;17.40;99.90;;;;;;4589664;19;20103;-32
2022/10/03 05:17:41;;;;;;;3.20;1.10;;;17.30;99.90;;;;;;4589100;19;20018;-32
2022/10/03 05:19:49;;;;;;;2.88;1.02;;;17.40;99.90;;;;;;4610992;19;20730;-38
2022/10/03 05:21:47;;;;;;;2.58;1.05;;;17.40;99.90;;;;;;4611937;19;20050;-34
2022/10/03 05:24:01;;;;;;;5.15;2.00;;;17.50;99.90;;;;;;4609951;19;20018;-34
2022/10/03 05:26:08;;;;;;;3.28;1.20;;;17.50;99.90;;;;;;4610318;19;20107;-40
2022/10/03 05:27:39;;;;;;;5.90;1.60;;;17.50;99.90;;;;;;4608578;19;20031;-38
2022/10/03 05:29:20;;;;;;;3.90;1.23;;;17.50;99.90;;;;;;4611441;19;20006;-40
2022/10/03 05:31:11;;;;;;;6.25;1.67;;;17.50;99.90;;;;;;4609786;19;20032;-36
2022/10/03 05:33:03;;;;;;;4.38;1.25;;;17.50;99.90;;;;;;4609147;19;20021;-36
2022/10/03 05:35:02;;;;;;;3.78;1.65;;;17.40;99.90;;;;;;4610309;19;20488;-33
2022/10/03 05:36:46;;;;;;;3.20;1.30;;;17.30;99.90;;;;;;4609744;19;20014;-36
2022/10/03 05:38:52;;;;;;;4.25;1.50;;;17.30;99.90;;;;;;4608297;19;20031;-35
2022/10/03 05:40:24;;;;;;;2.45;0.90;;;17.40;99.90;;;;;;4609900;19;20374;-37
2022/10/03 05:42:16;;;;;;;2.53;1.00;;;17.40;99.90;;;;;;4608188;19;20021;-34
2022/10/03 05:44:12;;;;;;;3.75;1.02;;;17.30;99.90;;;;;;4608661;19;20040;-37
2022/10/03 05:45:59;;;;;;;2.45;1.02;;;17.40;99.90;;;;;;4609400;19;20070;-40
2022/10/03 05:47:54;;;;;;;4.00;1.08;;;17.40;99.90;;;;;;4608928;19;20026;-39
2022/10/03 05:49:26;;;;;;;3.03;1.15;;;17.40;99.90;;;;;;4608769;19;20010;-33
2022/10/03 05:51:35;;;;;;;3.75;1.33;;;17.20;99.90;;;;;;4607675;19;20533;-36
2022/10/03 05:54:01;;;;;;;3.92;1.90;;;17.20;99.90;;;;;;4608127;19;20018;-35
2022/10/03 05:55:51;;;;;;;3.25;1.33;;;17.10;99.90;;;;;;4608948;19;20044;-41
2022/10/03 05:57:25;;;;;;;3.28;1.13;;;17.10;99.90;;;;;;4608922;19;20018;-36
2022/10/03 05:59:15;;;;;;;3.03;1.50;;;17.20;99.90;;;;;;4607863;19;20465;-34
2022/10/03 06:01:11;;;;;;;4.90;2.83;;;17.30;99.90;;;;;;4609022;19;20014;-39
2022/10/03 06:02:53;;;;;;;2.28;1.48;;;17.30;99.90;;;;;;4609353;19;20074;-43
2022/10/03 06:04:55;;;;;;;2.47;1.33;;;17.20;99.90;;;;;;4609891;19;20498;-38
2022/10/03 06:06:52;;;;;;;1.48;0.90;;;17.10;99.90;;;;;;4607169;19;20018;-42
2022/10/03 06:09:01;;;;;;;2.92;1.20;;;17.10;99.90;;;;;;4609115;19;20032;-41
2022/10/03 06:11:04;;;;;;;4.72;1.30;;;17.10;99.90;;;;;;4608661;19;20022;-34
2022/10/03 06:13:02;;;;;;;4.75;1.45;;;17.10;99.90;;;;;;4608986;19;20022;-41
2022/10/03 06:14:34;;;;;;;3.75;1.50;;;17.20;99.90;;;;;;4609203;19;20022;-37
2022/10/03 06:16:22;;;;;;;4.57;1.63;;;17.40;99.90;;;;;;4609072;19;20045;-34
2022/10/03 06:17:54;;;;;;;3.60;1.13;;;17.40;99.90;;;;;;4609014;19;20422;-35
2022/10/03 06:19:43;;;;;;;4.80;1.80;;;17.40;99.90;;;;;;4609191;19;20007;-34
2022/10/03 06:21:22;;;;;;;2.38;1.10;;;17.30;99.90;;;;;;4608961;19;20003;-36
2022/10/03 06:23:12;;;;;;;2.85;1.30;;;17.40;99.90;;;;;;4607206;19;20026;-35
2022/10/03 06:25:00;;;;;;;2.28;1.27;;;17.40;99.90;;;;;;4609279;19;20098;-37
2022/10/03 06:26:53;;;;;;;3.35;1.40;;;17.30;99.90;;;;;;4609485;19;20014;-36
2022/10/03 06:28:35;;;;;;;2.60;1.65;;;17.40;99.90;;;;;;4608936;19;20020;-38
2022/10/03 06:30:25;;;;;;;5.40;1.67;;;17.40;99.90;;;;;;4599604;19;20022;-41
2022/10/03 06:32:35;;;;;;;4.03;1.50;;;17.30;99.90;;;;;;4591039;19;20011;-37
2022/10/03 06:34:23;;;;;;;3.45;1.45;;;17.30;99.90;;;;;;4591627;19;20346;-34
2022/10/03 06:36:06;;;;;;;3.72;1.33;;;17.30;99.90;;;;;;4590664;19;20477;-38
2022/10/03 06:38:12;;;;;;;3.63;1.45;;;17.20;99.90;;;;;;4591625;19;20011;-39
2022/10/03 06:40:09;;;;;;;2.28;1.20;;;17.10;99.90;;;;;;4591167;19;20014;-36
2022/10/03 06:42:14;;;;;;;3.67;1.90;;;17.10;99.90;;;;;;4590485;19;20351;-34
2022/10/03 06:43:45;;;;;;;3.10;1.73;;;17.20;99.90;;;;;;4591689;19;20086;-37
2022/10/03 06:45:46;;;;;;;2.58;1.45;;;17.20;99.90;;;;;;4592626;19;20516;-37
2022/10/03 06:47:35;;;;;;;2.38;1.50;;;17.20;99.90;;;;;;4591123;19;20029;-38
2022/10/03 06:49:29;;;;;;;4.55;1.60;;;17.10;99.90;;;;;;4591041;19;20011;-34
2022/10/03 06:51:30;;;;;;;4.68;1.70;;;17.20;99.90;;;;;;4590238;19;20018;-36
2022/10/03 06:53:10;;;;;;;2.60;1.50;;;17.20;99.90;;;;;;4592907;19;20041;-37
2022/10/03 06:54:56;;;;;;;2.67;1.45;;;17.20;99.90;;;;;;4592350;19;20347;-39
2022/10/03 06:56:56;;;;;;;5.15;1.80;;;17.40;99.90;;;;;;4590453;19;20086;-37
2022/10/03 06:58:42;;;;;;;3.90;1.92;;;17.40;99.90;;;;;;4589448;19;20011;-33
2022/10/03 07:00:23;;;;;;;4.85;2.22;;;17.30;99.90;;;;;;4590103;19;20383;-35
2022/10/03 07:02:31;;;;;;;2.85;1.73;;;17.10;99.90;;;;;;4591020;19;19994;-35
2022/10/03 07:04:09;;;;;;;3.13;1.70;;;17.20;99.90;;;;;;4590244;19;20018;-34
2022/10/03 07:06:05;;;;;;;2.83;1.30;;;17.20;99.90;;;;;;4589839;19;20021;-35
2022/10/03 07:08:01;;;;;;;5.25;3.45;;;17.40;99.90;;;;;;4590229;19;20018;-34
2022/10/03 07:09:56;;;;;;;4.30;2.50;;;17.50;99.90;;;;;;4592226;19;20043;-36
2022/10/03 07:11:31;;;;;;;3.95;1.95;;;17.70;99.90;;;;;;4590475;19;20017;-34
2022/10/03 07:13:24;;;;;;;3.33;1.77;;;17.60;99.90;;;;;;4591153;19;20104;-36
2022/10/03 07:15:13;;;;;;;2.50;1.20;;;17.50;99.90;;;;;;4590164;19;20085;-35
2022/10/03 07:17:21;;;;;;;2.90;1.50;;;17.60;99.90;;;;;;4590268;19;20014;-36
2022/10/03 07:19:05;;;;;;;1.95;1.38;;;17.60;99.90;;;;;;4589488;19;20039;-36
2022/10/03 07:20:54;;;;;;;4.63;2.42;;;17.50;99.90;;;;;;4592343;19;20035;-34
2022/10/03 07:22:57;;;;;;;3.33;1.85;;;17.40;99.90;;;;;;4591012;19;20017;-35
2022/10/03 07:25:00;;;;;;;4.38;2.20;;;17.20;99.90;;;;;;4592072;19;20025;-32
2022/10/03 07:26:38;;;;;;;8.02;4.53;;;17.10;99.90;;;;;;4589810;19;20017;-35
2022/10/03 07:28:30;;;;;;;19.20;13.40;;;17.20;99.90;;;;;;4589733;19;20021;-35
2022/10/03 07:30:08;;;;;;;7.28;4.13;;;17.30;99.90;;;;;;4591747;19;20014;-38
2022/10/03 07:31:52;;;;;;;5.53;2.75;;;17.30;99.90;;;;;;4591563;19;20575;-35
2022/10/03 07:33:40;;;;;;;7.35;5.47;;;17.40;99.90;;;;;;4589305;19;20018;-37
2022/10/03 07:35:23;;;;;;;8.07;7.00;;;17.30;99.90;;;;;;4592767;19;20014;-37
2022/10/03 07:39:58;;;;;;;3.60;2.63;;;17.60;99.90;;;;;;4588730;19;20495;-38
2022/10/03 07:42:00;;;;;;;4.95;2.80;;;17.80;99.90;;;;;;4590127;19;20095;-37
2022/10/03 07:43:49;;;;;;;2.92;2.08;;;17.90;99.90;;;;;;4591583;19;20031;-34
2022/10/03 07:45:22;;;;;;;3.88;2.58;;;18.00;99.90;;;;;;4590595;19;20018;-36
2022/10/03 07:47:05;;;;;;;5.38;2.17;;;18.00;99.90;;;;;;4590605;19;20015;-35
2022/10/03 07:48:39;;;;;;;4.35;2.20;;;18.00;99.90;;;;;;4591555;19;20475;-37
2022/10/03 07:50:29;;;;;;;4.07;2.30;;;17.90;99.90;;;;;;4591086;19;20038;-39
2022/10/03 07:52:30;;;;;;;3.05;2.00;;;17.90;99.90;;;;;;4590195;19;20006;-35
2022/10/03 07:54:33;;;;;;;2.67;2.08;;;18.00;99.90;;;;;;4590679;19;20506;-38
2022/10/03 07:56:42;;;;;;;3.97;2.33;;;17.90;99.90;;;;;;4591700;19;20003;-34
2022/10/03 07:58:16;;;;;;;3.38;2.03;;;17.90;99.90;;;;;;4593584;19;20057;-40
2022/10/03 08:00:21;;;;;;;3.88;2.45;;;17.90;99.90;;;;;;4593279;19;20022;-35
2022/10/03 08:02:30;;;;;;;4.05;2.00;;;18.00;99.90;;;;;;4589116;19;20023;-37
2022/10/03 08:04:22;;;;;;;3.88;2.15;;;18.00;99.90;;;;;;4590618;19;20480;-36
2022/10/03 08:06:16;;;;;;;3.35;2.33;;;18.00;99.90;;;;;;4590928;19;20023;-36
2022/10/03 08:08:04;;;;;;;3.72;2.20;;;18.00;99.90;;;;;;4591096;19;20027;-37
2022/10/03 08:10:15;;;;;;;4.78;2.28;;;18.10;99.90;;;;;;4590393;19;20107;-36
2022/10/03 08:12:14;;;;;;;4.72;2.65;;;18.10;99.90;;;;;;4590900;19;20014;-35
2022/10/03 08:13:56;;;;;;;3.65;2.15;;;18.10;99.90;;;;;;4590531;19;20038;-35
2022/10/03 08:16:01;;;;;;;3.58;2.00;;;18.10;99.90;;;;;;4588655;19;20007;-36
2022/10/03 08:18:09;;;;;;;4.75;2.63;;;18.10;99.90;;;;;;4589096;19;20018;-35
2022/10/03 08:19:40;;;;;;;4.30;2.55;;;17.90;99.90;;;;;;4589059;19;20524;-34
2022/10/03 08:22:16;;;;;;;5.03;2.78;;;17.70;99.90;;;;;;4589566;19;20010;-36
2022/10/03 08:24:11;;;;;;;3.78;2.53;;;17.60;99.90;;;;;;4590015;19;20015;-35
2022/10/03 08:26:03;;;;;;;3.55;2.63;;;17.60;99.90;;;;;;4590831;19;20017;-42
2022/10/03 08:27:58;;;;;;;3.97;2.85;;;17.50;99.90;;;;;;4590939;19;20018;-32
2022/10/03 08:29:51;;;;;;;5.50;2.85;;;17.50;99.90;;;;;;4590829;19;20024;-37
2022/10/03 08:31:37;;;;;;;3.55;2.35;;;17.50;99.90;;;;;;4591294;19;20006;-36
2022/10/03 08:33:33;;;;;;;5.32;3.35;;;17.50;99.90;;;;;;4588312;19;20460;-41
2022/10/03 08:35:24;;;;;;;4.45;2.72;;;17.40;99.90;;;;;;4588763;19;20022;-40
2022/10/03 08:37:33;;;;;;;5.18;2.67;;;17.50;99.90;;;;;;4590258;19;20010;-33
2022/10/03 08:39:39;;;;;;;3.53;2.92;;;17.10;99.90;;;;;;4587506;19;20010;-36
2022/10/03 08:41:13;;;;;;;5.15;3.20;;;16.10;99.90;;;;;;4588107;19;20386;-32
2022/10/03 08:43:22;;;;;;;4.90;3.50;;;15.70;99.90;;;;;;4588024;19;20775;-34
2022/10/03 08:44:59;;;;;;;3.63;2.95;;;15.60;99.90;;;;;;4588234;19;20048;-34
2022/10/03 08:47:01;;;;;;;4.10;2.80;;;15.60;99.90;;;;;;4588278;19;20014;-39
2022/10/03 08:48:50;;;;;;;4.57;3.03;;;15.60;99.90;;;;;;4588152;19;20037;-37
2022/10/03 08:50:30;;;;;;;3.90;2.33;;;15.60;99.90;;;;;;4588383;19;20023;-34
2022/10/03 08:52:34;;;;;;;4.18;2.75;;;15.60;99.90;;;;;;4588094;19;20452;-43
2022/10/03 08:54:29;;;;;;;3.20;2.55;;;15.60;99.90;;;;;;4587448;19;20018;-35
2022/10/03 08:56:07;;;;;;;3.92;2.88;;;15.60;99.90;;;;;;4588111;19;20041;-37
2022/10/03 08:58:05;;;;;;;3.90;2.63;;;15.70;99.90;;;;;;4588075;19;20363;-35
2022/10/03 09:00:02;;;;;;;3.13;2.53;;;15.70;99.90;;;;;;4588138;19;20031;-35
2022/10/03 09:01:35;;;;;;;4.63;3.28;;;15.70;99.90;;;;;;4587952;19;20068;-34
2022/10/03 09:03:34;;;;;;;3.00;2.30;;;15.70;99.90;;;;;;4588305;19;20018;-33
2022/10/03 09:05:24;;;;;;;4.45;2.88;;;15.70;99.90;;;;;;4588208;19;20039;-37
2022/10/03 09:07:12;;;;;;;5.45;4.18;;;15.70;99.90;;;;;;4588457;19;20007;-34
2022/10/03 09:09:12;;;;;;;3.35;2.40;;;15.70;99.90;;;;;;4588463;19;20025;-34
2022/10/03 09:10:59;;;;;;;3.95;3.08;;;15.70;99.90;;;;;;4587978;19;20357;-33
2022/10/03 09:12:51;;;;;;;3.80;3.20;;;15.70;99.90;;;;;;4587912;19;20120;-33
2022/10/03 09:14:43;;;;;;;3.35;2.58;;;15.70;99.90;;;;;;4587695;19;20011;-34
2022/10/03 09:16:44;;;;;;;3.17;2.53;;;15.70;99.90;;;;;;4588185;19;20066;-34
2022/10/03 09:18:35;;;;;;;3.75;2.45;;;15.70;99.90;;;;;;4587369;19;20018;-33
2022/10/03 09:20:25;;;;;;;3.30;2.40;;;15.70;99.90;;;;;;4587709;19;20014;-34
2022/10/03 09:22:13;;;;;;;4.05;3.05;;;15.70;99.90;;;;;;4588420;19;20590;-33
2022/10/03 09:23:56;;;;;;;5.63;3.33;;;15.70;99.90;;;;;;4588935;19;20472;-34
2022/10/03 09:26:01;;;;;;;3.65;2.33;;;15.70;99.90;;;;;;4590241;19;20010;-34
2022/10/03 09:28:01;;;;;;;4.65;3.20;;;15.70;99.90;;;;;;4590275;19;20010;-34
2022/10/03 09:29:57;;;;;;;5.97;3.50;;;15.70;99.90;;;;;;4589124;19;20088;-31
2022/10/03 09:31:46;;;;;;;3.53;2.78;;;15.70;99.90;;;;;;4588652;19;20014;-31
2022/10/03 09:33:38;;;;;;;5.88;3.25;;;15.60;99.90;;;;;;4589707;19;20015;-32
2022/10/03 09:35:23;;;;;;;3.85;2.90;;;15.60;99.90;;;;;;4589579;19;20010;-31
2022/10/03 09:37:19;;;;;;;4.03;3.08;;;15.60;99.90;;;;;;4589035;19;20020;-32
2022/10/03 09:38:57;;;;;;;4.18;2.88;;;15.60;99.90;;;;;;4588913;19;20348;-32
2022/10/03 09:40:49;;;;;;;3.22;2.60;;;15.60;99.90;;;;;;4589467;19;20076;-32
2022/10/03 09:42:57;;;;;;;4.22;2.97;;;15.70;99.90;;;;;;4589701;19;20018;-32
2022/10/03 09:45:15;;;;;;;3.40;2.55;;;15.70;99.90;;;;;;4589015;19;20341;-32